Time;durP1;ratioP1;P1;durP2;ratioP2;P2;SDS_P1;SDS_P2;PMS_P1;PMS_P2;Temp;Humidity;BMP_temperature;BMP_pressure;BME280_temperature;BME280_humidity;BME280_pressure;Samples;Min_cycle;Max_cycle;Signal;HPM_P1;HPM_P2
2023/07/07 00:00:46;;;;;;;2.47;1.10;;;;;;;16.27;65.80;101974.56;4997309;28;99869;-26
2023/07/07 00:03:12;;;;;;;2.08;1.15;;;;;;;16.28;66.29;101980.91;4996097;28;100792;-28
2023/07/07 00:05:37;;;;;;;1.08;0.82;;;;;;;16.21;65.91;101975.00;4997833;28;96750;-26
2023/07/07 00:08:04;;;;;;;3.22;1.50;;;;;;;16.20;66.20;101969.63;4997632;28;96854;-26
2023/07/07 00:10:29;;;;;;;1.85;1.10;;;;;;;16.20;66.11;101972.34;4997273;28;97984;-27
2023/07/07 00:12:54;;;;;;;2.42;1.23;;;;;;;16.20;66.27;101972.34;4997450;28;97921;-26
2023/07/07 00:15:20;;;;;;;1.33;0.80;;;;;;;16.18;66.29;101982.50;4997799;28;96470;-26
2023/07/07 00:17:47;;;;;;;2.00;1.17;;;;;;;16.16;65.75;101982.63;4997741;28;96856;-27
2023/07/07 00:20:14;;;;;;;1.55;0.95;;;;;;;16.12;65.80;101976.47;4995811;28;101142;-26
2023/07/07 00:22:40;;;;;;;2.20;1.20;;;;;;;16.14;66.29;101977.25;4996104;28;101436;-27
2023/07/07 00:25:06;;;;;;;4.43;1.45;;;;;;;16.13;66.45;101970.00;4996234;28;96594;-27
2023/07/07 00:27:32;;;;;;;1.73;1.08;;;;;;;16.10;66.71;101969.34;4997541;28;96826;-27
2023/07/07 00:29:57;;;;;;;3.03;1.48;;;;;;;16.10;66.35;101969.34;4996774;28;97980;-26
2023/07/07 00:32:23;;;;;;;1.33;1.02;;;;;;;16.07;66.38;101966.84;4997082;28;98020;-26
2023/07/07 00:34:48;;;;;;;2.92;1.30;;;;;;;16.06;66.20;101984.19;4997397;28;96894;-26
2023/07/07 00:37:13;;;;;;;2.10;1.27;;;;;;;16.02;66.24;101974.47;4996869;28;96855;-27
2023/07/07 00:39:39;;;;;;;1.60;1.05;;;;;;;16.05;66.27;101974.25;4997018;28;97995;-26
2023/07/07 00:42:04;;;;;;;2.47;1.40;;;;;;;15.99;66.28;101970.06;4996927;28;97911;-26
2023/07/07 00:45:04;;;;;;;2.53;1.42;;;;;;;15.95;66.80;101957.59;4995958;28;96757;-27
2023/07/07 00:47:31;;;;;;;2.17;1.17;;;;;;;15.94;66.42;101955.81;4996146;28;96826;-26
2023/07/07 00:49:56;;;;;;;3.00;0.93;;;;;;;15.97;66.47;101963.84;4995483;28;99123;-26
2023/07/07 00:52:22;;;;;;;2.30;1.25;;;;;;;15.95;66.63;101959.47;4996862;28;97800;-26
2023/07/07 00:54:47;;;;;;;2.92;1.42;;;;;;;15.87;66.38;101952.66;4995363;28;96588;-27
2023/07/07 00:57:13;;;;;;;3.80;1.55;;;;;;;15.87;66.84;101958.13;4998373;28;96785;-26
2023/07/07 00:59:42;;;;;;;3.35;1.50;;;;;;;15.84;66.93;101949.22;4998833;28;101401;-26
2023/07/07 01:02:14;;;;;;;1.92;1.20;;;;;;;15.85;67.55;101964.63;4998745;28;100845;-26
2023/07/07 01:04:44;;;;;;;2.20;1.25;;;;;;;15.82;67.44;101960.25;4999277;28;97136;-28
2023/07/07 01:07:15;;;;;;;2.25;1.30;;;;;;;15.79;67.36;101963.19;4999273;28;96889;-26
2023/07/07 01:09:40;;;;;;;2.40;1.17;;;;;;;15.73;67.64;101959.97;4998610;28;100948;-27
2023/07/07 01:12:10;;;;;;;3.00;1.50;;;;;;;15.76;68.22;101959.81;5000669;28;97299;-26
2023/07/07 01:14:36;;;;;;;3.92;1.30;;;;;;;15.73;67.53;101955.41;4998929;28;96815;-28
2023/07/07 01:17:12;;;;;;;1.92;1.15;;;;;;;15.78;67.38;101952.34;5000708;28;96747;-27
2023/07/07 01:19:44;;;;;;;2.05;1.30;;;;;;;15.78;67.76;101958.72;4998182;28;101090;-26
2023/07/07 01:22:34;;;;;;;2.97;1.73;;;;;;;15.75;68.06;101961.63;4998591;28;101300;-26
2023/07/07 01:25:17;;;;;;;3.78;1.88;;;;;;;15.76;67.52;101954.34;5000485;28;96483;-27
2023/07/07 01:28:20;;;;;;;2.38;1.55;;;;;;;15.77;67.79;101959.69;4998853;28;96754;-27
2023/07/07 01:31:02;;;;;;;3.42;1.63;;;;;;;15.73;67.77;101951.78;4999988;28;97929;-26
2023/07/07 01:33:30;;;;;;;2.67;1.60;;;;;;;15.70;68.12;101961.94;4998164;28;100849;-26
2023/07/07 01:35:55;;;;;;;4.53;1.92;;;;;;;15.67;67.93;101958.50;4998402;28;96809;-26
2023/07/07 01:38:32;;;;;;;2.90;1.55;;;;;;;15.64;68.22;101954.13;5000739;28;96796;-26
2023/07/07 01:41:32;;;;;;;3.10;1.73;;;;;;;15.63;68.56;101955.06;4998137;28;101035;-26
2023/07/07 01:44:24;;;;;;;2.95;1.60;;;;;;;15.57;68.78;101939.13;4998345;28;98362;-28
2023/07/07 01:46:59;;;;;;;4.47;2.03;;;;;;;15.53;69.29;101940.28;4998194;28;96586;-26
2023/07/07 01:49:32;;;;;;;5.28;2.15;;;;;;;15.55;69.20;101948.38;4998554;28;97194;-27
2023/07/07 01:52:29;;;;;;;3.38;2.00;;;;;;;15.57;69.71;101946.44;4998016;28;101085;-26
2023/07/07 01:55:10;;;;;;;4.68;1.90;;;;;;;15.53;69.79;101953.94;4997875;28;99197;-27
2023/07/07 01:57:37;;;;;;;2.67;1.75;;;;;;;15.52;69.88;101946.72;4998451;28;96603;-27
2023/07/07 02:00:03;;;;;;;7.18;1.98;;;;;;;15.48;69.53;101945.16;4998377;28;96888;-26
2023/07/07 02:02:29;;;;;;;3.85;2.08;;;;;;;15.46;69.99;101947.97;4997815;28;102144;-26
2023/07/07 02:04:54;;;;;;;5.20;2.65;;;;;;;15.45;70.29;101954.44;4999377;28;99309;-26
2023/07/07 02:07:20;;;;;;;3.80;2.03;;;;;;;15.43;70.51;101944.59;4999508;28;96579;-26
2023/07/07 02:09:45;;;;;;;4.68;2.28;;;;;;;15.42;70.91;101956.47;4999214;28;96872;-26
2023/07/07 02:12:10;;;;;;;3.63;2.08;;;;;;;15.39;70.98;101953.94;4998832;28;97460;-27
2023/07/07 02:14:36;;;;;;;4.90;2.50;;;;;;;15.34;70.79;101937.00;4999327;28;97254;-26
2023/07/07 02:17:01;;;;;;;5.57;2.45;;;;;;;15.38;70.69;101946.75;4999588;28;96611;-27
2023/07/07 02:19:27;;;;;;;3.80;2.17;;;;;;;15.32;70.88;101928.88;4999411;28;96891;-26
2023/07/07 02:21:52;;;;;;;4.57;2.20;;;;;;;15.35;71.42;101941.47;4997659;28;101066;-26
2023/07/07 02:24:17;;;;;;;6.90;2.35;;;;;;;15.29;71.38;101935.41;4998716;28;109094;-27
2023/07/07 02:26:43;;;;;;;4.55;2.45;;;;;;;15.30;71.80;101936.28;4999231;28;96712;-26
2023/07/07 02:29:09;;;;;;;4.10;2.42;;;;;;;15.28;71.09;101939.13;4999940;28;96842;-26
2023/07/07 02:31:34;;;;;;;4.22;2.17;;;;;;;15.25;72.01;101938.44;4998593;28;99645;-28
2023/07/07 02:34:00;;;;;;;4.32;2.42;;;;;;;15.25;71.97;101939.34;4998518;28;99064;-27
2023/07/07 02:36:25;;;;;;;4.18;2.30;;;;;;;15.22;72.13;101936.78;4998237;28;96814;-26
2023/07/07 02:38:53;;;;;;;3.75;2.13;;;;;;;15.24;72.28;101940.31;4999067;28;96555;-27
2023/07/07 02:41:19;;;;;;;3.38;2.30;;;;;;;15.22;72.61;101934.06;4998466;28;97971;-27
2023/07/07 02:43:45;;;;;;;4.85;2.13;;;;;;;15.19;72.51;101939.72;4997280;28;100639;-26
2023/07/07 02:46:10;;;;;;;3.42;2.10;;;;;;;15.20;72.76;101941.47;4999255;28;96583;-30
2023/07/07 02:48:37;;;;;;;3.80;2.13;;;;;;;15.20;72.82;101946.91;4998618;28;98150;-27
2023/07/07 02:51:04;;;;;;;3.47;1.92;;;;;;;15.15;72.81;101942.75;4997056;28;100910;-26
2023/07/07 02:53:33;;;;;;;3.15;2.17;;;;;;;15.17;72.61;101946.25;4997372;28;99914;-27
2023/07/07 02:55:58;;;;;;;2.50;1.75;;;;;;;15.23;72.62;101945.84;4997381;28;96564;-26
2023/07/07 02:58:24;;;;;;;4.05;2.10;;;;;;;15.25;72.26;101950.25;4999129;28;96761;-26
2023/07/07 03:00:51;;;;;;;3.13;2.00;;;;;;;15.30;71.88;101958.13;4996351;28;100967;-26
2023/07/07 03:03:18;;;;;;;6.57;2.00;;;;;;;15.31;71.46;101957.19;4997043;28;98825;-26
2023/07/07 03:05:44;;;;;;;3.20;1.77;;;;;;;15.29;71.46;101956.38;4997382;28;96568;-27
2023/07/07 03:08:10;;;;;;;2.80;1.70;;;;;;;15.31;71.99;101954.44;4998761;28;96789;-26
2023/07/07 03:10:37;;;;;;;2.63;1.67;;;;;;;15.35;71.86;101960.56;4996754;28;100498;-27
2023/07/07 03:13:03;;;;;;;5.22;2.03;;;;;;;15.34;71.71;101964.28;4996656;28;100909;-26
2023/07/07 03:15:38;;;;;;;5.68;1.92;;;;;;;15.34;71.78;101962.44;4998748;28;96840;-26
2023/07/07 03:18:08;;;;;;;4.05;1.67;;;;;;;15.34;71.51;101954.25;4997704;28;96699;-26
2023/07/07 03:20:34;;;;;;;2.85;1.85;;;;;;;15.36;71.56;101959.63;4995694;28;101953;-28
2023/07/07 03:23:00;;;;;;;4.05;2.03;;;;;;;15.37;71.08;101950.44;4998139;28;98163;-26
2023/07/07 03:25:26;;;;;;;4.35;1.50;;;;;;;15.34;71.04;101954.25;4998066;28;96569;-26
2023/07/07 03:27:52;;;;;;;4.78;1.70;;;;;;;15.38;71.38;101957.66;4997080;28;96836;-27
2023/07/07 03:30:17;;;;;;;3.42;1.45;;;;;;;15.39;71.07;101954.81;4997924;28;97896;-27
2023/07/07 03:32:43;;;;;;;3.00;1.70;;;;;;;15.39;70.72;101952.09;4996501;28;101426;-26
2023/07/07 03:35:09;;;;;;;2.60;1.52;;;;;;;15.42;70.64;101954.63;4997358;28;96898;-26
2023/07/07 03:37:36;;;;;;;2.05;1.15;;;;;;;15.41;70.72;101955.59;4998364;28;96773;-26
2023/07/07 03:40:01;;;;;;;4.63;1.50;;;;;;;15.42;70.77;101962.84;4996325;28;101032;-26
2023/07/07 03:42:27;;;;;;;6.13;1.77;;;;;;;15.42;70.47;101960.09;4998028;28;97356;-28
2023/07/07 03:44:52;;;;;;;2.22;1.20;;;;;;;15.39;70.58;101957.53;4998122;28;96482;-27
2023/07/07 03:47:17;;;;;;;2.90;1.40;;;;;;;15.38;70.59;101949.47;4998312;28;96760;-26
2023/07/07 03:49:43;;;;;;;3.45;1.60;;;;;;;15.37;70.62;101948.56;4997292;28;98165;-26
2023/07/07 03:52:08;;;;;;;2.08;1.08;;;;;;;15.43;70.01;101964.56;4997653;28;97826;-26
2023/07/07 03:54:33;;;;;;;2.13;1.35;;;;;;;15.44;70.10;101968.19;4997952;28;96749;-26
2023/07/07 03:56:59;;;;;;;2.58;1.08;;;;;;;15.42;70.25;101959.19;4998195;28;96806;-27
2023/07/07 03:59:26;;;;;;;2.40;1.50;;;;;;;15.36;69.80;101944.09;4997677;28;97909;-26
2023/07/07 04:01:51;;;;;;;1.55;1.08;;;;;;;15.42;69.58;101949.19;4997434;28;97389;-26
2023/07/07 04:04:16;;;;;;;2.13;1.10;;;;;;;15.46;69.59;101960.75;4998000;28;96667;-27
2023/07/07 04:06:42;;;;;;;2.10;1.13;;;;;;;15.47;69.23;101960.69;4998394;28;96801;-27
2023/07/07 04:09:07;;;;;;;1.83;1.05;;;;;;;15.49;69.37;101960.56;4996309;28;97943;-26
2023/07/07 04:11:32;;;;;;;3.50;1.13;;;;;;;15.49;69.09;101957.84;4996128;28;97990;-26
2023/07/07 04:13:58;;;;;;;1.90;1.10;;;;;;;15.53;69.08;101973.06;4997354;28;96724;-26
2023/07/07 04:16:25;;;;;;;2.85;1.35;;;;;;;15.57;69.01;101971.00;4997957;28;96771;-26
2023/07/07 04:18:54;;;;;;;1.83;1.00;;;;;;;15.54;69.05;101961.16;4995776;28;101268;-26
2023/07/07 04:21:22;;;;;;;2.15;1.30;;;;;;;15.60;68.66;101966.22;4995842;28;100789;-26
2023/07/07 04:23:51;;;;;;;4.38;1.30;;;;;;;15.60;68.46;101965.34;4996207;28;96533;-26
2023/07/07 04:26:18;;;;;;;2.70;1.30;;;;;;;15.66;68.32;101960.38;4996208;28;96843;-26
2023/07/07 04:28:44;;;;;;;2.10;0.90;;;;;;;15.67;68.27;101955.78;4995692;28;100878;-28
2023/07/07 04:31:11;;;;;;;1.92;0.95;;;;;;;15.72;68.22;101964.56;4997396;28;97274;-27
2023/07/07 04:33:38;;;;;;;2.13;1.27;;;;;;;15.72;68.14;101970.03;4996117;28;96607;-27
2023/07/07 04:36:07;;;;;;;2.40;1.20;;;;;;;15.69;68.56;101965.63;4994962;28;96836;-26
2023/07/07 04:38:33;;;;;;;2.20;1.20;;;;;;;15.73;67.91;101958.16;4995366;28;100959;-26
2023/07/07 04:41:12;;;;;;;4.72;1.48;;;;;;;15.80;67.94;101956.78;4994938;28;100746;-26
2023/07/07 04:43:41;;;;;;;1.42;1.13;;;;;;;15.80;67.84;101958.59;4995935;28;96548;-26
2023/07/07 04:46:08;;;;;;;2.95;1.52;;;;;;;15.87;67.84;101973.59;4995868;28;96867;-27
2023/07/07 04:48:33;;;;;;;2.28;1.08;;;;;;;15.87;67.59;101951.75;4995454;28;100904;-26
2023/07/07 04:51:03;;;;;;;3.35;1.50;;;;;;;15.93;67.25;101954.09;4995533;28;98420;-26
2023/07/07 04:53:30;;;;;;;2.15;1.17;;;;;;;15.94;67.45;101958.56;4995821;28;96859;-26
2023/07/07 04:55:57;;;;;;;2.83;1.35;;;;;;;15.99;67.30;101969.19;4996194;28;96850;-29
2023/07/07 04:58:25;;;;;;;4.00;1.23;;;;;;;16.01;67.39;101965.38;4995333;28;101453;-26
2023/07/07 05:00:53;;;;;;;7.43;1.67;;;;;;;16.04;67.29;101959.72;4996544;28;97889;-26
2023/07/07 05:03:18;;;;;;;1.90;1.20;;;;;;;16.10;67.37;101958.44;4995358;28;96519;-26
2023/07/07 05:05:43;;;;;;;1.65;1.08;;;;;;;16.17;67.24;101967.09;4997297;28;96831;-26
2023/07/07 05:08:09;;;;;;;4.60;1.38;;;;;;;16.18;67.37;101964.25;4996636;28;98029;-26
2023/07/07 05:10:34;;;;;;;3.33;1.55;;;;;;;16.21;67.18;101972.25;4996762;28;97722;-26
2023/07/07 05:13:00;;;;;;;2.15;1.17;;;;;;;16.30;66.62;101963.44;4997197;28;96674;-27
2023/07/07 05:15:25;;;;;;;2.65;1.10;;;;;;;16.40;66.44;101970.97;4997154;28;96744;-26
2023/07/07 05:17:51;;;;;;;2.47;1.30;;;;;;;16.47;66.64;101975.06;4996556;28;97794;-26
2023/07/07 05:20:17;;;;;;;2.65;1.35;;;;;;;16.52;66.44;101975.66;4995358;28;100930;-28
2023/07/07 05:22:42;;;;;;;2.22;1.05;;;;;;;16.56;66.32;101975.34;4996842;28;96672;-27
2023/07/07 05:25:08;;;;;;;2.00;1.00;;;;;;;16.64;66.15;101976.66;4996770;28;96972;-26
2023/07/07 05:27:33;;;;;;;2.83;1.45;;;;;;;16.70;66.00;101974.34;4996067;28;98041;-26
2023/07/07 05:29:58;;;;;;;3.10;1.23;;;;;;;16.83;65.61;101977.16;4996211;28;99377;-27
2023/07/07 05:32:24;;;;;;;3.90;1.20;;;;;;;16.90;65.53;101974.84;4997028;28;96676;-26
2023/07/07 05:34:49;;;;;;;2.22;1.10;;;;;;;16.95;65.19;101981.78;4996060;28;96855;-26
2023/07/07 05:37:15;;;;;;;2.13;1.02;;;;;;;17.02;65.18;101973.09;4994439;28;101516;-26
2023/07/07 05:39:40;;;;;;;5.32;1.35;;;;;;;17.16;64.62;101978.47;4996361;28;97852;-26
2023/07/07 05:42:06;;;;;;;4.28;1.27;;;;;;;17.19;64.44;101976.41;4996534;28;96812;-26
2023/07/07 05:44:32;;;;;;;3.63;1.20;;;;;;;17.31;64.01;101985.59;4999669;28;96984;-26
2023/07/07 05:46:57;;;;;;;1.80;1.08;;;;;;;17.38;64.39;101992.41;5000013;28;97492;-27
2023/07/07 05:49:22;;;;;;;2.90;1.02;;;;;;;17.49;63.94;101998.94;4999577;28;97775;-26
2023/07/07 05:51:48;;;;;;;5.40;1.48;;;;;;;17.56;63.88;101984.69;4999340;28;96606;-27
2023/07/07 05:54:14;;;;;;;2.78;0.93;;;;;;;17.73;63.29;101991.69;5000014;28;96792;-26
2023/07/07 05:56:39;;;;;;;2.13;1.00;;;;;;;17.86;63.38;102001.78;4999536;28;97750;-26
2023/07/07 05:59:05;;;;;;;4.50;1.20;;;;;;;17.92;62.76;101987.59;4997955;28;101153;-26
2023/07/07 06:01:31;;;;;;;4.15;1.08;;;;;;;18.07;62.04;101986.47;4998301;28;96862;-26
2023/07/07 06:03:56;;;;;;;2.80;1.10;;;;;;;18.28;62.12;101994.06;4999692;28;96830;-28
2023/07/07 06:06:21;;;;;;;1.88;1.10;;;;;;;18.37;62.22;101991.50;4999002;28;99320;-27
2023/07/07 06:08:47;;;;;;;3.55;1.25;;;;;;;18.41;60.68;101982.03;4999562;28;98826;-27
2023/07/07 06:11:12;;;;;;;1.20;0.85;;;;;;;18.53;61.53;101984.84;4999533;28;96495;-27
2023/07/07 06:13:38;;;;;;;2.42;1.25;;;;;;;18.67;60.05;101999.25;4999481;28;96489;-26
2023/07/07 06:16:05;;;;;;;3.40;1.10;;;;;;;18.80;60.64;101992.81;4997039;28;99169;-26
2023/07/07 06:18:30;;;;;;;1.90;1.08;;;;;;;18.96;60.33;101998.00;4997645;28;100882;-26
2023/07/07 06:21:00;;;;;;;2.75;1.02;;;;;;;19.08;60.35;101995.16;4999399;28;96703;-26
2023/07/07 06:23:30;;;;;;;2.15;1.20;;;;;;;19.22;59.64;101998.69;4999472;28;96664;-26
2023/07/07 06:25:55;;;;;;;1.27;0.90;;;;;;;19.34;60.14;101994.94;4998869;28;97446;-27
2023/07/07 06:28:20;;;;;;;2.42;1.17;;;;;;;19.43;59.54;101987.84;4999123;28;97689;-26
2023/07/07 06:30:48;;;;;;;1.60;1.10;;;;;;;19.57;59.15;101989.44;4999423;28;96579;-26
2023/07/07 06:33:14;;;;;;;2.70;1.38;;;;;;;19.70;58.91;101991.09;5000046;28;96797;-26
2023/07/07 06:35:39;;;;;;;1.15;0.80;;;;;;;19.87;58.20;102000.69;4996271;28;101139;-26
2023/07/07 06:38:05;;;;;;;2.95;1.20;;;;;;;19.98;58.28;101999.81;4998674;28;97351;-26
2023/07/07 06:40:30;;;;;;;1.70;0.95;;;;;;;20.11;57.42;102000.53;4998286;28;96574;-26
2023/07/07 06:42:58;;;;;;;4.82;1.27;;;;;;;20.24;56.96;102003.16;4999051;28;96920;-26
2023/07/07 06:45:23;;;;;;;3.20;0.98;;;;;;;20.35;57.12;102005.88;4998747;28;98073;-26
2023/07/07 06:47:49;;;;;;;2.33;1.35;;;;;;;20.46;56.96;102006.84;4998735;28;97239;-26
2023/07/07 06:50:24;;;;;;;1.25;0.80;;;;;;;20.58;56.44;102005.81;4998809;28;96802;-27
2023/07/07 06:52:49;;;;;;;4.63;1.15;;;;;;;20.74;56.29;102011.75;4997577;28;96791;-26
2023/07/07 06:55:15;;;;;;;4.93;1.30;;;;;;;20.84;55.71;101995.31;4998938;28;97535;-26
2023/07/07 06:57:40;;;;;;;3.83;1.23;;;;;;;21.03;55.69;102001.97;4998883;28;97283;-26
2023/07/07 07:00:06;;;;;;;2.88;1.10;;;;;;;21.14;55.10;101999.13;4999082;28;96586;-26
2023/07/07 07:02:31;;;;;;;3.88;1.42;;;;;;;21.29;54.55;102011.56;4997289;28;96786;-26
2023/07/07 07:04:57;;;;;;;2.55;1.35;;;;;;;21.41;55.38;102009.63;4997980;28;97471;-27
2023/07/07 07:07:22;;;;;;;3.97;1.20;;;;;;;21.56;54.86;102011.00;4998086;28;104343;-26
2023/07/07 07:09:47;;;;;;;3.47;1.33;;;;;;;21.63;54.50;102012.19;4998853;28;96612;-26
2023/07/07 07:12:13;;;;;;;1.30;0.90;;;;;;;21.67;52.71;102003.66;4998559;28;96907;-26
2023/07/07 07:14:38;;;;;;;2.88;1.30;;;;;;;21.80;53.66;102009.81;4998289;28;97959;-28
2023/07/07 07:17:03;;;;;;;4.10;1.23;;;;;;;21.96;53.63;102017.56;4998211;28;97739;-26
2023/07/07 07:19:29;;;;;;;3.20;1.23;;;;;;;22.02;53.50;102012.38;4998570;28;96717;-26
2023/07/07 07:21:54;;;;;;;2.03;0.98;;;;;;;22.14;53.22;102007.56;4999120;28;96801;-27
2023/07/07 07:24:23;;;;;;;2.75;1.08;;;;;;;22.31;52.97;102011.59;4998040;28;99865;-26
2023/07/07 07:26:48;;;;;;;2.60;1.10;;;;;;;22.41;52.84;102014.34;4996716;28;99856;-27
2023/07/07 07:29:14;;;;;;;3.03;1.10;;;;;;;22.58;51.20;102023.81;4998119;28;96500;-26
2023/07/07 07:31:41;;;;;;;3.60;1.08;;;;;;;22.63;52.45;102018.72;4996956;28;96925;-26
2023/07/07 07:34:24;;;;;;;2.03;1.08;;;;;;;22.77;51.05;102021.06;4996411;28;100976;-26
2023/07/07 07:36:51;;;;;;;3.38;1.02;;;;;;;22.85;51.30;102023.94;4995543;28;101424;-27
2023/07/07 07:39:17;;;;;;;4.20;1.23;;;;;;;22.95;51.87;102028.59;4996819;28;96627;-26
2023/07/07 07:41:48;;;;;;;3.78;1.48;;;;;;;23.11;51.38;102029.78;4998284;28;96765;-26
2023/07/07 07:44:14;;;;;;;;;;;;;;;23.23;50.06;102033.25;4996635;28;101286;-26
2023/07/07 07:46:41;;;;;;;2.20;0.93;;;;;;;23.27;49.04;102034.72;4996565;28;100709;-26
2023/07/07 07:49:06;;;;;;;2.30;0.95;;;;;;;23.34;50.40;102028.59;4984510;28;97641;-30
2023/07/07 07:51:32;;;;;;;1.73;0.90;;;;;;;23.38;49.23;102028.13;4976571;28;97023;-27
2023/07/07 07:53:57;;;;;;;2.58;1.17;;;;;;;23.48;49.03;102019.81;4979113;28;97989;-26
2023/07/07 07:56:22;;;;;;;4.32;1.08;;;;;;;23.61;49.21;102013.94;4979752;28;105580;-27
2023/07/07 07:58:48;;;;;;;2.83;1.42;;;;;;;23.74;49.44;102017.28;4978843;28;96788;-27
2023/07/07 08:01:14;;;;;;;2.13;1.13;;;;;;;23.89;49.28;102020.41;4977210;28;96803;-28
2023/07/07 08:03:39;;;;;;;1.35;0.82;;;;;;;23.96;48.24;102024.31;4980469;28;98000;-26
2023/07/07 08:06:04;;;;;;;1.35;0.90;;;;;;;24.10;48.90;102023.78;4996383;28;97326;-26
2023/07/07 08:08:30;;;;;;;3.13;1.17;;;;;;;24.12;48.24;102027.28;4997395;28;97063;-26
2023/07/07 08:10:55;;;;;;;4.57;1.10;;;;;;;24.33;48.27;102028.88;4998448;28;96867;-28
2023/07/07 08:13:20;;;;;;;2.35;1.27;;;;;;;24.34;47.97;102016.81;4996526;28;98992;-27
2023/07/07 08:15:46;;;;;;;3.47;1.02;;;;;;;24.45;47.75;102027.63;4997039;28;97797;-26
2023/07/07 08:18:11;;;;;;;1.58;1.02;;;;;;;24.54;47.07;102029.50;4997173;28;96596;-26
2023/07/07 08:20:36;;;;;;;2.83;1.52;;;;;;;24.65;47.37;102019.22;4989642;28;96910;-26
2023/07/07 08:23:02;;;;;;;1.88;0.90;;;;;;;24.66;45.59;102030.13;4988151;28;99375;-27
2023/07/07 08:25:28;;;;;;;4.32;1.10;;;;;;;24.79;47.03;102030.63;4997039;28;97790;-27
2023/07/07 08:27:54;;;;;;;3.92;1.33;;;;;;;24.97;46.44;102030.59;4997448;28;96528;-26
2023/07/07 08:30:20;;;;;;;3.75;1.13;;;;;;;25.13;45.87;102032.63;4996312;28;97104;-31
2023/07/07 08:32:46;;;;;;;3.13;1.20;;;;;;;25.24;46.27;102025.13;4994925;28;100842;-26
2023/07/07 08:35:11;;;;;;;2.75;1.23;;;;;;;25.40;45.68;102039.97;4996702;28;97782;-26
2023/07/07 08:37:37;;;;;;;2.55;1.15;;;;;;;25.49;45.14;102031.72;4995739;28;96734;-26
2023/07/07 08:40:03;;;;;;;4.22;1.63;;;;;;;25.59;44.27;102029.69;4997345;28;96774;-26
2023/07/07 08:42:32;;;;;;;2.03;0.95;;;;;;;25.59;43.78;102026.91;4994923;28;101660;-26
2023/07/07 08:45:00;;;;;;;2.72;1.10;;;;;;;25.66;43.63;102033.53;4994505;28;100544;-30
2023/07/07 08:47:47;;;;;;;3.45;1.10;;;;;;;25.74;42.92;102016.97;4993453;28;97103;-27
2023/07/07 08:50:30;;;;;;;2.78;1.40;;;;;;;25.90;43.51;102030.06;4993533;28;97135;-27
2023/07/07 08:53:02;;;;;;;3.13;1.23;;;;;;;25.96;42.97;102028.53;4992845;28;100965;-29
2023/07/07 08:55:50;;;;;;;3.55;1.05;;;;;;;26.03;41.20;102021.28;4992649;28;101279;-32
2023/07/07 08:58:43;;;;;;;2.35;1.27;;;;;;;26.09;42.17;102028.06;4993180;28;97186;-27
2023/07/07 09:01:40;;;;;;;2.97;1.35;;;;;;;26.24;41.54;102027.25;4996706;28;96783;-26
2023/07/07 09:04:05;;;;;;;2.13;1.25;;;;;;;26.42;42.15;102015.13;4995407;28;101138;-26
2023/07/07 09:06:36;;;;;;;1.77;1.00;;;;;;;26.48;39.38;102025.56;4996790;28;97913;-26
2023/07/07 09:09:26;;;;;;;2.85;1.35;;;;;;;26.57;40.67;102023.69;4996713;28;96608;-26
2023/07/07 09:12:09;;;;;;;2.40;0.98;;;;;;;26.76;40.91;102025.28;4996961;28;96702;-26
2023/07/07 09:14:37;;;;;;;2.30;0.90;;;;;;;26.68;37.93;102020.59;4995158;28;100949;-26
2023/07/07 09:17:09;;;;;;;3.88;1.38;;;;;;;26.81;39.46;102017.31;4994983;28;100850;-26
2023/07/07 09:19:40;;;;;;;3.80;1.05;;;;;;;26.95;39.51;102024.09;4998529;28;96591;-26
2023/07/07 09:22:30;;;;;;;2.77;1.13;;;;;;;27.06;37.74;102015.41;4999059;28;96892;-26
2023/07/07 09:24:58;;;;;;;1.67;1.10;;;;;;;27.23;40.03;102019.94;4999878;28;99401;-27
2023/07/07 09:27:30;;;;;;;4.38;1.20;;;;;;;27.27;38.70;102015.75;4998702;28;98968;-26
2023/07/07 09:30:11;;;;;;;1.88;1.23;;;;;;;27.22;38.13;102022.88;4999119;28;96577;-27
2023/07/07 09:32:36;;;;;;;1.95;0.90;;;;;;;27.26;37.40;102016.78;4998852;28;96687;-26
2023/07/07 09:35:02;;;;;;;2.13;1.08;;;;;;;27.53;39.21;102026.66;4998972;28;99325;-26
2023/07/07 09:37:56;;;;;;;4.43;1.30;;;;;;;27.62;36.32;102023.84;4999234;28;99211;-26
2023/07/07 09:40:35;;;;;;;3.53;1.30;;;;;;;27.64;37.54;102025.41;4998851;28;96605;-26
2023/07/07 09:43:23;;;;;;;3.25;1.35;;;;;;;27.79;37.74;102019.97;4998597;28;96789;-27
2023/07/07 09:46:11;;;;;;;2.97;1.45;;;;;;;27.96;36.68;102015.25;4998118;28;101212;-26
2023/07/07 09:48:42;;;;;;;1.90;0.95;;;;;;;27.98;36.77;102028.97;4998249;28;101143;-26
2023/07/07 09:51:36;;;;;;;2.33;1.20;;;;;;;28.15;35.62;102022.28;4999761;28;96546;-26
2023/07/07 09:54:02;;;;;;;2.15;1.15;;;;;;;28.21;36.76;102006.75;4998987;28;96533;-26
2023/07/07 09:56:37;;;;;;;2.35;1.20;;;;;;;28.26;36.69;102010.72;4997854;28;101486;-26
2023/07/07 09:59:27;;;;;;;4.30;1.40;;;;;;;28.43;35.91;102016.22;4998092;28;100883;-26
2023/07/07 10:01:55;;;;;;;2.15;1.25;;;;;;;28.46;36.68;102016.75;4999017;28;96799;-26
2023/07/07 10:04:24;;;;;;;5.57;1.60;;;;;;;28.40;34.19;102017.44;4999627;28;96857;-26
2023/07/07 10:07:07;;;;;;;2.88;1.52;;;;;;;28.34;36.27;102013.47;4997791;28;101200;-26
2023/07/07 10:09:33;;;;;;;2.95;1.30;;;;;;;28.20;34.98;102016.16;4997835;28;101125;-26
2023/07/07 10:11:59;;;;;;;5.45;1.25;;;;;;;28.29;36.29;102013.16;4999726;28;96546;-26
2023/07/07 10:14:28;;;;;;;1.83;0.82;;;;;;;28.41;35.80;102001.59;4999479;28;96866;-26
2023/07/07 10:17:09;;;;;;;3.10;1.60;;;;;;;28.54;33.88;102004.66;4997514;28;101110;-26
2023/07/07 10:19:42;;;;;;;4.47;1.33;;;;;;;28.47;31.59;102004.53;4998192;28;101108;-26
2023/07/07 10:22:13;;;;;;;4.05;1.38;;;;;;;28.55;34.94;102003.59;4997983;28;96636;-26
2023/07/07 10:24:38;;;;;;;2.10;1.10;;;;;;;28.49;33.60;102004.38;4999153;28;96894;-26
2023/07/07 10:27:04;;;;;;;6.55;0.98;;;;;;;28.43;33.26;102003.13;4998581;28;97976;-26
2023/07/07 10:29:40;;;;;;;2.50;1.20;;;;;;;28.43;34.66;102005.91;4997072;28;102537;-26
2023/07/07 10:32:12;;;;;;;2.25;1.17;;;;;;;28.56;33.05;102006.22;4998132;28;96632;-26
2023/07/07 10:34:42;;;;;;;2.53;1.25;;;;;;;28.80;34.65;102016.31;4999284;28;96655;-26
2023/07/07 10:37:29;;;;;;;4.03;1.15;;;;;;;29.03;32.19;102007.03;4996863;28;101107;-26
2023/07/07 10:39:57;;;;;;;2.30;1.10;;;;;;;28.99;32.02;101994.56;4997180;28;100852;-27
2023/07/07 10:42:24;;;;;;;2.72;1.42;;;;;;;28.99;32.93;102005.72;4997633;28;96754;-26
2023/07/07 10:44:51;;;;;;;2.40;1.23;;;;;;;29.20;33.71;101999.44;4998122;28;96821;-26
2023/07/07 10:47:19;;;;;;;2.47;1.23;;;;;;;29.16;32.40;101996.16;4997164;28;101529;-26
2023/07/07 10:49:45;;;;;;;2.55;1.13;;;;;;;29.21;33.27;101985.28;4996905;28;101228;-26
2023/07/07 10:52:41;;;;;;;2.72;1.30;;;;;;;29.42;32.94;101995.72;4998593;28;96502;-27
2023/07/07 10:55:19;;;;;;;1.92;1.08;;;;;;;29.51;32.00;101999.28;4999146;28;96808;-26
2023/07/07 10:58:25;;;;;;;2.90;1.60;;;;;;;29.40;32.56;101995.03;4996916;28;101360;-26
2023/07/07 11:01:09;;;;;;;3.63;1.40;;;;;;;29.40;32.96;101996.97;4995807;28;97811;-26
2023/07/07 11:03:48;;;;;;;2.55;1.35;;;;;;;29.47;31.53;101991.50;4998745;28;96815;-26
2023/07/07 11:06:19;;;;;;;3.70;1.10;;;;;;;29.63;32.83;101989.38;4998681;28;96721;-26
2023/07/07 11:09:18;;;;;;;3.80;1.67;;;;;;;29.73;32.32;101994.69;4998519;28;98149;-27
2023/07/07 11:11:43;;;;;;;2.35;1.20;;;;;;;29.67;32.12;101994.59;4998869;28;97862;-28
2023/07/07 11:14:42;;;;;;;2.03;1.25;;;;;;;29.76;31.27;101993.44;4998875;28;96625;-26
2023/07/07 11:17:26;;;;;;;3.10;1.20;;;;;;;29.85;31.99;101993.13;4998837;28;96502;-26
2023/07/07 11:20:36;;;;;;;5.93;1.63;;;;;;;29.83;31.77;101994.41;4997584;28;99611;-26
2023/07/07 11:23:23;;;;;;;2.88;1.63;;;;;;;29.62;31.52;101986.75;4997989;28;97752;-27
2023/07/07 11:25:53;;;;;;;3.28;1.50;;;;;;;29.49;32.19;101967.91;4997247;28;96594;-26
2023/07/07 11:28:41;;;;;;;4.22;1.38;;;;;;;29.51;31.45;101976.94;4998423;28;96782;-26
2023/07/07 11:31:09;;;;;;;2.30;1.27;;;;;;;29.59;31.66;101989.94;4998000;28;98077;-27
2023/07/07 11:33:53;;;;;;;3.40;1.30;;;;;;;29.59;30.76;101976.84;4997907;28;97913;-26
2023/07/07 11:36:45;;;;;;;1.75;1.17;;;;;;;29.55;30.28;101967.09;4997824;28;96826;-26